I CHARYTATYWNY BIEG DLA KUBY

Organizator/ Organizer:
SKO I Biegu Charytatywnego dla Kuby
Data/ Date:
2018-05-02
Miejsce/ Place:
Strzelce Dolne
Dystans/ Distance:
4 km
Zgłoszonych/ Registered:
109
Wystartowało/ Started:
91
Nie ukończyło/ Not finished:
2
Ukończyło/ Finished:
89
Na trasie/ On track:
2

Klasyfikacja/ Classiffication: M-Open

Wyniki nieoficjalne !!!
Pełne wyniki/ Full Results : PDF | CSV
Wyniki uproszczone/ Simple results : PDF | PDF2 | CSV
 
Klasyfikacje w punktach pomiarowych/ Classification for time points: Meta
Klasyfikacje wg kategorii/ Classification by category: Wszyscy | K-Open | M-Open

Msc/ RnkZawodnik/ NameNumer/ BibKlub/ TeamMiejscowość/ CityKraj/ CountryKategoria/ CategoryMkat/ CatRnkK/M/ W/MCzas
netto
4km
Czas
brutto
4km
Różn/ GapTempo
min/km
Tempo
km/h
      
1HOŁTYN Patryk 32TKKF KOLEJARZ BYDGOSZCZRADZIEJÓWM-Open1M 100:15:36.2500:15:38.40 3:5415.4
2KOLMAJER Rafał 7#TEAMFARFALLABYDGOSZCZM-Open2M 200:15:43.8000:15:45.80+00:00:073:5515.3
3BARTCZAK Łukasz 62TEAMOCHALDOBRCZM-Open3M 300:15:56.7000:15:58.50+00:00:203:5915
4SZCZEPANIAK Cezary 55BYDGOSZCZM-Open4M 400:16:45.1000:16:47.10+00:01:084:1114.3
5PAWLACZYK Szymon 73TRISPACEBYDGOSZCZM-Open5M 500:17:01.7000:17:04.00+00:01:254:1514.1
6ŚRUBKA Patryk 108M-Open6M 600:17:04.7500:17:07.20+00:01:284:1614
7PAWDZIBÓG Mariusz 106M-Open7M 700:17:08.8000:17:11.40+00:01:334:1714
8ŻEGLICZ Marek 76SPÓJNIA BIAŁE BŁOTABIAŁE BŁOTAM-Open8M 800:18:50.3000:18:53.25+00:03:144:4212.7
9NIEDBALSKI Grzegorz 41RUN BYDGOSZCZBYDGOSZCZM-Open9M 900:19:22.0500:19:26.50+00:03:484:5012.4
10PALISZEWSKI Paweł 84M-Open10M 1000:19:36.0000:19:46.85+00:04:084:5412.2
11BĄK Krzysztof 83M-Open11M 1100:20:14.3500:20:18.65+00:04:405:0311.9
12SIUDA Sebastian 56SOLECCY BIEGACZEBYDGOSZCZM-Open12M 1200:20:35.8000:20:39.10+00:05:005:0911.7
13ŁOBOCKI Krzysztof 47BYDGOSZCZM-Open13M 1300:20:36.4500:20:42.80+00:05:045:0911.7
14KRAKOWSKI Grzegorz 105M-Open14M 1400:21:25.1500:21:29.60+00:05:515:2111.2
15JASKULSKI Tymoteusz 10BYDGOSZCZM-Open15M 1500:21:38.7000:21:40.70+00:06:025:2411.1
16GACKOWSKI Michał 68BYDGOSZCZM-Open16M 1600:21:37.4000:21:42.05+00:06:035:2411.1
17KONDEK Jakub 94BYDGOSZCZM-Open17M 1700:21:39.5500:21:45.30+00:06:065:2511.1
18KANIEWSKI Maciej 64RUN FOR FUNBYDGOSZCZM-Open18M 1800:21:37.3000:21:46.95+00:06:085:2411.1
19KRUTUL Maciej 75HDR WATAHA BYDGOSZCZMORZEWIECM-Open19M 1900:21:45.5500:21:56.80+00:06:185:2611
20WALENCIAK Jarosław 93M-Open20M 2000:21:51.7000:21:57.70+00:06:195:2711
21KONDEK Igor 95BYDGOSZCZM-Open21M 2100:21:52.8500:21:58.05+00:06:195:2811
22CHMIELEWSKI Ireneusz 92M-Open22M 2200:22:04.2000:22:10.20+00:06:315:3110.9
23ŚLADEWSKI Rafał 51GĄDECZM-Open23M 2300:22:13.3000:22:20.30+00:06:415:3310.8
24SIERANT Marian 5ŻÓŁTOKRÓLEWSCYBYDGOSZCZM-Open24M 2400:22:49.1500:22:51.75+00:07:135:4210.5
25GŁYSZ Dawid 651 BLOGBYDGOSZCZM-Open25M 2500:22:52.1000:23:00.35+00:07:215:4310.5
26BRĄGIEL Jakub 29VEGE RUNNERSBYDGOSZCZM-Open26M 2600:22:57.4000:23:06.60+00:07:285:4410.5
27WIŚNIEWSKI Włodzimierz 52SPCTORUŃM-Open27M 2700:23:13.1000:23:18.50+00:07:405:4810.3
28IWANOWSKI Jakub 85GDAŃSKM-Open28M 2800:24:02.6000:24:07.70+00:08:296:0010
29GUŹDZIOŁ Jarek 9SOLECCY BIEGACZESOLEC KUJAWSKIM-Open29M 2900:24:14.7500:24:20.10+00:08:416:039.9
30OLCZAK Krzysztof 50BYDGOSZCZM-Open30M 3000:24:15.8000:24:22.40+00:08:446:049.9
31SZTEJKA Damian 17BENEFITKSOBYDGOSZCZM-Open31M 3100:25:36.8500:25:41.75+00:10:036:249.4
32NOWA Adam 87BYDGOSZCZM-Open32M 3200:26:14.5000:26:19.95+00:10:416:339.1
33JASINIECKI Wojciech 23BYDGOSZCZM-Open33M 3300:26:13.6500:26:19.95+00:10:416:339.2
34GORGOL Tomasz 38LP500BYDGOSZCZM-Open34M 3400:26:14.2000:26:20.00+00:10:416:339.1
35ASTUKIEWICZ Tomasz 66BYDGOSZCZM-Open35M 3500:26:20.8500:26:30.65+00:10:526:359.1
36NOWAK Tomasz 99OSÓWIECM-Open36M 3600:28:35.0500:28:43.00+00:13:047:098.4
37KLIMKOWSKI Rafał 110BYDGOSZCZM-Open37M 3700:34:06.2000:34:15.55+00:18:378:317
38KRZYWDZIŃSKI Karol 59BYDGOSZCZM-Open38M 3800:35:51.1000:35:56.55+00:20:188:576.7
39KRZYWDZIŃSKI Daniel 57BYDGOSZCZM-Open39M 3900:35:58.2000:36:04.55+00:20:268:596.7
40ZŁOTOWSKI Denis 81M-Open40M 40   
Znaleziono 40 wynik(ów)